Medicine Lake, Minnesota
Current Conditions -  °F | °C
As of 8:53 AM on Wednesday 22 Oct 2014 (Local Time) from KMIC Reporting Station
Clear Clear  
Wind Chill: 38°   Ceiling: Unl
Heat Index: 44°   Visibility: 10mi
Dew Point: 37°   Wind: 13mph
Humidity: 76%   Direction: 140°SE
Pressure: 30.18"   Gusts: NA
Location:  45.0038°N, 93.4289°W
Report Text: KMIC 221353Z 14011KT 10SM CLR 07/03 A3018 RMK AO2 SLP224 T00670028
Loading
Personal Weather Stations






























Interactive Weather Map
Tropical Storm Tracking
New forecast layout! Learn more

10-Day Weather Forecast

Advertisements
Track Severe Weather on mobile